Ocean City, Maryland
Current Conditions -  °F | °C
As of 8:21 PM on Wednesday 22 Oct 2014 (Local Time) from KOXB Reporting Station
Light Rain Light Rain  
Wind Chill: 54°   Ceiling: 1200
Heat Index: 54°   Visibility: 4mi
Dew Point: 51°   Wind: 18mph
Humidity: 90%   Direction: 340°NNW
Pressure: 29.79"   Gusts: 24mph
Location:  38.34°N, 75.08°W
Report Text: KOXB 230021Z AUTO 34016G21KT 4SM -RA BR BKN012 BKN017 OVC023 12/11 A2979 RMK AO2 P0000 T01220106 TSNO
Loading
Personal Weather Stations






























Interactive Weather Map New forecast layout! Learn more

10-Day Weather Forecast

Advertisements
Track Severe Weather on mobile